Terminal Aerodrome Forecast
Issued by NWS Cleveland, OH

Home | Current Version | Previous Version | Graphics & Text | Print | Product List | Glossary On
Versions: 1 2 3 4 5 6 7 8 9 10 11 12 13 14 15 16 17 18 19 20 21
138
FTUS41 KCLE 031930 AAA
TAFYNG
TAF AMD
KYNG 031930Z 0320/0418 22015G25KT P6SM BKN035
     FM040100 25012KT P6SM BKN035
     FM040700 25008KT P6SM VCSH OVC022=

USA.gov is the U.S. government's official web portal to all federal, state and local government web resources and services.